createdAt,value
2022-11-04T00:01:24.294Z,88.30
2022-11-04T00:03:56.049Z,87.90
2022-11-04T00:06:27.034Z,87.70
2022-11-04T00:08:59.613Z,88.30
2022-11-04T00:11:48.425Z,86.80
2022-11-04T00:14:19.517Z,86.70
2022-11-04T00:17:08.226Z,86.70
2022-11-04T00:19:56.371Z,86.70
2022-11-04T00:22:44.518Z,86.80
2022-11-04T00:25:33.383Z,86.70
2022-11-04T00:28:24.173Z,86.20
2022-11-04T00:30:59.268Z,86.00
2022-11-04T00:33:30.350Z,85.40
2022-11-04T00:36:01.138Z,85.30
2022-11-04T00:38:31.920Z,84.80
2022-11-04T00:41:02.755Z,84.80
2022-11-04T00:43:33.569Z,84.80
2022-11-04T00:46:04.503Z,84.50
2022-11-04T00:48:35.321Z,84.50
2022-11-04T00:51:06.628Z,84.50
2022-11-04T00:53:37.877Z,84.40
2022-11-04T00:56:10.136Z,84.70
2022-11-04T00:58:41.020Z,84.70
2022-11-04T01:01:18.093Z,84.60
2022-11-04T01:03:52.208Z,84.60
2022-11-04T01:06:26.838Z,84.50
2022-11-04T01:09:06.987Z,84.50
2022-11-04T01:11:39.209Z,84.30
2022-11-04T01:14:10.089Z,83.30
2022-11-04T01:16:41.432Z,83.40
2022-11-04T01:19:13.484Z,83.40
2022-11-04T01:21:44.441Z,83.60
2022-11-04T01:24:15.791Z,83.40
2022-11-04T01:26:47.125Z,83.60
2022-11-04T01:29:18.744Z,82.70
2022-11-04T01:31:49.491Z,82.90
2022-11-04T01:34:21.049Z,82.90
2022-11-04T01:36:52.292Z,83.30
2022-11-04T01:39:23.467Z,83.50
2022-11-04T01:41:55.617Z,83.40
2022-11-04T01:44:48.045Z,83.20
2022-11-04T01:47:24.212Z,82.70
2022-11-04T01:49:57.505Z,81.60
2022-11-04T01:52:30.844Z,80.90
2022-11-04T01:55:04.777Z,80.10
2022-11-04T01:57:41.998Z,80.20
2022-11-04T02:00:14.327Z,79.30
2022-11-04T02:02:50.448Z,77.60
2022-11-04T02:05:22.510Z,78.70
2022-11-04T02:07:55.623Z,78.30
2022-11-04T02:10:29.369Z,77.70
2022-11-04T02:13:02.901Z,76.30
2022-11-04T02:15:48.579Z,76.70
2022-11-04T02:18:30.553Z,77.00
2022-11-04T02:21:08.674Z,75.70
2022-11-04T02:24:01.528Z,73.50
2022-11-04T02:26:54.464Z,74.00
2022-11-04T02:29:44.281Z,73.60
2022-11-04T02:32:23.574Z,73.20
2022-11-04T02:34:59.850Z,73.70
2022-11-04T02:37:39.410Z,74.10
2022-11-04T02:40:15.347Z,74.60
2022-11-04T02:43:10.524Z,74.50
2022-11-04T02:45:54.088Z,73.30
2022-11-04T02:48:33.406Z,74.00
2022-11-04T02:51:09.729Z,73.00
2022-11-04T02:53:43.190Z,73.40
2022-11-04T02:56:16.437Z,73.90
2022-11-04T02:58:52.862Z,73.30
2022-11-04T03:01:26.139Z,73.40
2022-11-04T03:04:05.184Z,73.70
2022-11-04T03:06:38.076Z,73.30
2022-11-04T03:09:10.854Z,72.90
2022-11-04T03:11:44.452Z,72.70
2022-11-04T03:14:17.930Z,72.20
2022-11-04T03:16:51.725Z,72.00
2022-11-04T03:19:47.945Z,72.00
2022-11-04T03:22:21.294Z,72.00
2022-11-04T03:24:53.348Z,69.60
2022-11-04T03:27:27.053Z,70.30
2022-11-04T03:30:09.635Z,68.80
2022-11-04T03:32:49.208Z,68.60
2022-11-04T03:35:20.354Z,67.30
2022-11-04T03:37:54.582Z,67.00
2022-11-04T03:40:24.907Z,66.50
2022-11-04T03:43:13.619Z,79.20
2022-11-04T03:45:46.071Z,75.90
2022-11-04T03:50:49.943Z,76.20
2022-11-04T03:53:23.666Z,73.70
2022-11-04T03:56:06.934Z,77.20
2022-11-04T03:58:55.311Z,77.40
2022-11-04T04:01:28.794Z,65.60
2022-11-04T04:04:02.312Z,61.10
2022-11-04T04:06:35.607Z,59.70
2022-11-04T04:12:12.095Z,59.80
2022-11-04T04:14:51.201Z,58.60
2022-11-04T04:17:36.418Z,58.50
2022-11-04T04:20:19.535Z,58.90
2022-11-04T04:22:58.390Z,59.30
2022-11-04T04:25:49.082Z,57.30
2022-11-04T04:28:21.132Z,58.10
2022-11-04T04:30:56.370Z,56.80
2022-11-04T04:33:25.092Z,56.80
2022-11-04T04:36:00.329Z,58.30
2022-11-04T04:38:51.514Z,67.40
2022-11-04T04:41:45.388Z,77.50
2022-11-04T04:44:42.439Z,70.80
2022-11-04T04:47:16.656Z,72.50
2022-11-04T04:49:56.209Z,77.20
2022-11-04T04:52:28.893Z,61.50
2022-11-04T04:54:59.808Z,72.20
2022-11-04T04:57:30.561Z,56.00
2022-11-04T05:00:01.919Z,54.30
2022-11-04T05:02:32.802Z,53.70
2022-11-04T05:05:04.070Z,52.80
2022-11-04T05:07:35.364Z,53.60
2022-11-04T05:10:06.819Z,53.90
2022-11-04T05:12:59.842Z,53.90
2022-11-04T05:15:32.766Z,54.20
2022-11-04T05:18:04.821Z,53.50
2022-11-04T05:20:35.625Z,53.10
2022-11-04T05:23:06.436Z,52.50
2022-11-04T05:25:37.544Z,52.90
2022-11-04T05:28:09.168Z,53.10
2022-11-04T05:30:40.648Z,52.90
2022-11-04T05:33:11.934Z,53.10
2022-11-04T05:35:43.787Z,53.80
2022-11-04T05:38:14.757Z,53.20
2022-11-04T05:43:22.913Z,53.60
2022-11-04T05:45:54.194Z,54.10
2022-11-04T05:48:25.296Z,53.60
2022-11-04T05:51:06.262Z,53.80
2022-11-04T05:53:37.599Z,52.70
2022-11-04T05:56:14.883Z,53.60
2022-11-04T05:58:41.026Z,53.20
2022-11-04T06:01:32.496Z,52.90
2022-11-04T06:04:04.806Z,53.50
2022-11-04T06:06:38.098Z,53.00
2022-11-04T06:09:08.993Z,54.50
2022-11-04T06:11:41.650Z,53.10
2022-11-04T06:14:18.303Z,53.70
2022-11-04T06:16:45.284Z,53.10
2022-11-04T06:19:16.538Z,52.80
2022-11-04T06:21:47.631Z,52.80
2022-11-04T06:24:18.688Z,52.50
2022-11-04T06:26:50.011Z,52.40
2022-11-04T06:29:20.776Z,53.30
2022-11-04T06:31:51.685Z,52.60
2022-11-04T06:34:22.555Z,52.30
2022-11-04T06:36:53.507Z,52.40
2022-11-04T06:39:24.540Z,52.40
2022-11-04T06:41:57.944Z,52.20
2022-11-04T06:44:27.946Z,52.50
2022-11-04T06:46:58.921Z,51.70
2022-11-04T06:49:29.937Z,51.70
2022-11-04T06:52:02.973Z,51.50
2022-11-04T06:54:33.819Z,52.20
2022-11-04T06:57:04.991Z,51.80
2022-11-04T06:59:35.821Z,51.70
2022-11-04T07:02:08.093Z,52.00
2022-11-04T07:04:40.755Z,52.00
2022-11-04T07:07:12.047Z,52.10
2022-11-04T07:09:44.289Z,52.10
2022-11-04T07:12:15.209Z,51.90
2022-11-04T07:14:45.988Z,52.50
2022-11-04T07:17:17.173Z,52.70
2022-11-04T07:20:08.408Z,52.70
2022-11-04T07:22:39.240Z,52.50
2022-11-04T07:25:11.137Z,52.10
2022-11-04T07:27:42.267Z,52.30
2022-11-04T07:30:14.161Z,52.50
2022-11-04T07:32:45.059Z,52.70
2022-11-04T07:35:16.125Z,53.00
2022-11-04T07:37:49.700Z,52.80
2022-11-04T07:40:19.904Z,52.90
2022-11-04T07:42:50.767Z,53.20
2022-11-04T07:45:21.569Z,52.50
2022-11-04T07:48:00.419Z,52.40
2022-11-04T07:50:31.751Z,52.10
2022-11-04T07:53:03.738Z,52.50
2022-11-04T07:55:43.068Z,52.70
2022-11-04T07:58:15.126Z,52.10
2022-11-04T08:01:06.476Z,52.00
2022-11-04T08:03:38.615Z,52.60
2022-11-04T08:06:11.967Z,52.40
2022-11-04T08:08:44.639Z,52.60
2022-11-04T08:11:22.438Z,52.70
2022-11-04T08:13:53.408Z,52.80
2022-11-04T08:16:31.420Z,52.70
2022-11-04T08:19:01.532Z,52.90
2022-11-04T08:21:33.564Z,52.60
2022-11-04T08:24:05.140Z,52.40
2022-11-04T08:26:36.176Z,52.80
2022-11-04T08:29:09.377Z,52.90
2022-11-04T08:31:41.048Z,53.20
2022-11-04T08:34:12.823Z,52.90
2022-11-04T08:36:44.142Z,52.90
2022-11-04T08:39:16.635Z,53.10
2022-11-04T08:41:49.703Z,53.10
2022-11-04T08:44:21.082Z,53.20
2022-11-04T08:47:12.775Z,53.30
2022-11-04T08:49:44.125Z,53.10
2022-11-04T08:52:15.493Z,52.90
2022-11-04T08:54:47.678Z,53.30
2022-11-04T08:57:18.785Z,53.10
2022-11-04T08:59:49.720Z,53.60
2022-11-04T09:02:21.095Z,52.90
2022-11-04T09:04:55.833Z,53.00
2022-11-04T09:07:26.951Z,53.60
2022-11-04T09:09:57.864Z,53.50
2022-11-04T09:12:28.698Z,53.30
2022-11-04T09:15:02.184Z,53.20
2022-11-04T09:17:33.617Z,53.10
2022-11-04T09:20:06.668Z,53.80
2022-11-04T09:22:44.664Z,53.50
2022-11-04T09:25:13.300Z,53.70
2022-11-04T09:27:44.123Z,53.90
2022-11-04T09:30:15.883Z,54.10
2022-11-04T09:32:52.413Z,54.50
2022-11-04T09:35:19.659Z,54.70
2022-11-04T09:37:51.814Z,54.40
2022-11-04T09:40:25.309Z,54.70
2022-11-04T09:43:33.826Z,54.80
2022-11-04T09:46:06.269Z,54.60
2022-11-04T09:48:48.395Z,55.10
2022-11-04T09:51:48.093Z,55.30
2022-11-04T09:54:00.083Z,55.40
2022-11-04T09:56:40.225Z,55.10
2022-11-04T09:59:13.954Z,55.50
2022-11-04T10:02:22.259Z,55.70
2022-11-04T10:04:54.197Z,55.70
2022-11-04T10:07:40.038Z,55.60
2022-11-04T10:10:19.109Z,55.90
2022-11-04T10:13:00.286Z,56.20
2022-11-04T10:15:50.372Z,56.30
2022-11-04T10:18:44.860Z,56.50
2022-11-04T10:21:25.024Z,56.60
2022-11-04T10:24:07.494Z,56.60
2022-11-04T10:26:47.575Z,56.70
2022-11-04T10:29:21.293Z,56.90
2022-11-04T10:31:54.076Z,57.10
2022-11-04T10:34:36.382Z,57.10
2022-11-04T10:37:08.831Z,57.30
2022-11-04T10:39:42.232Z,57.30
2022-11-04T10:42:16.058Z,57.50
2022-11-04T10:44:47.989Z,57.70
2022-11-04T10:47:48.668Z,57.90
2022-11-04T10:50:29.825Z,58.10
2022-11-04T10:53:09.183Z,58.50
2022-11-04T10:55:45.782Z,58.40
2022-11-04T10:58:19.240Z,58.60
2022-11-04T11:00:50.541Z,58.70
2022-11-04T11:03:32.986Z,58.80
2022-11-04T11:06:18.347Z,59.00
2022-11-04T11:08:49.897Z,59.20
2022-11-04T11:11:23.659Z,59.40
2022-11-04T11:13:54.781Z,59.60
2022-11-04T11:16:29.871Z,59.90
2022-11-04T11:19:23.762Z,60.10
2022-11-04T11:21:59.846Z,60.00
2022-11-04T11:24:36.210Z,60.30
2022-11-04T11:27:11.154Z,60.40
2022-11-04T11:29:45.139Z,60.50
2022-11-04T11:32:24.376Z,60.60
2022-11-04T11:34:55.576Z,60.80
2022-11-04T11:37:28.616Z,60.80
2022-11-04T11:40:00.035Z,61.10
2022-11-04T11:42:31.025Z,61.50
2022-11-04T11:45:04.397Z,61.60
2022-11-04T11:47:41.652Z,61.70
2022-11-04T11:50:20.893Z,61.80
2022-11-04T11:52:54.020Z,61.90
2022-11-04T11:55:32.909Z,62.00
2022-11-04T12:01:09.860Z,62.30
2022-11-04T12:09:44.312Z,62.30
2022-11-04T12:12:46.885Z,62.40
2022-11-04T12:15:30.633Z,62.30
2022-11-04T12:18:35.261Z,62.60
2022-11-04T12:21:19.559Z,63.10
2022-11-04T12:24:07.089Z,63.20
2022-11-04T12:27:09.373Z,63.40
2022-11-04T12:30:04.356Z,63.70
2022-11-04T12:32:52.376Z,63.80
2022-11-04T12:35:42.795Z,64.10
2022-11-04T12:38:46.307Z,64.20
2022-11-04T12:41:59.459Z,64.70
2022-11-04T12:44:36.899Z,65.10
2022-11-04T12:47:28.805Z,65.40
2022-11-04T12:50:28.021Z,65.70
2022-11-04T12:53:20.842Z,66.00
2022-11-04T12:56:16.275Z,66.70
2022-11-04T12:59:07.670Z,66.80
2022-11-04T13:01:50.164Z,66.80
2022-11-04T13:04:26.673Z,67.00
2022-11-04T13:07:03.164Z,67.40
2022-11-04T13:09:51.602Z,67.60
2022-11-04T13:12:25.238Z,67.50
2022-11-04T13:14:58.544Z,67.80
2022-11-04T13:17:41.607Z,68.30
2022-11-04T13:20:18.901Z,68.10
2022-11-04T13:22:52.232Z,69.50
2022-11-04T13:25:38.004Z,69.80
2022-11-04T13:28:14.622Z,70.00
2022-11-04T13:31:07.719Z,70.40
2022-11-04T13:33:52.682Z,69.60
2022-11-04T13:36:42.038Z,70.70
2022-11-04T13:39:21.600Z,70.70
2022-11-04T13:42:20.063Z,71.40
2022-11-04T13:44:53.988Z,71.70
2022-11-04T13:47:30.064Z,72.30
2022-11-04T13:50:01.085Z,72.40
2022-11-04T13:52:38.500Z,72.50
2022-11-04T13:55:12.530Z,73.00
2022-11-04T13:58:00.937Z,73.00
2022-11-04T14:00:36.809Z,72.60
2022-11-04T14:03:31.707Z,73.00
2022-11-04T14:06:05.196Z,73.50
2022-11-04T14:08:36.911Z,73.60
2022-11-04T14:11:10.272Z,73.40
2022-11-04T14:13:45.781Z,73.90
2022-11-04T14:16:32.518Z,74.10
2022-11-04T14:19:05.964Z,74.50
2022-11-04T14:21:40.214Z,74.50
2022-11-04T14:24:16.602Z,75.00
2022-11-04T14:26:48.126Z,75.20
2022-11-04T14:29:21.589Z,74.80
2022-11-04T14:31:58.103Z,76.10
2022-11-04T14:34:38.845Z,74.70
2022-11-04T14:37:24.150Z,73.50
2022-11-04T14:40:00.394Z,72.90
2022-11-04T14:42:52.993Z,74.00
2022-11-04T14:45:26.665Z,74.50
2022-11-04T14:48:01.486Z,75.10
2022-11-04T14:50:37.302Z,75.40
2022-11-04T14:53:08.796Z,75.50
2022-11-04T14:55:40.324Z,75.90
2022-11-04T14:58:30.511Z,76.20
2022-11-04T15:01:10.649Z,76.90
2022-11-04T15:04:11.514Z,77.40
2022-11-04T15:06:15.673Z,77.40
2022-11-04T15:08:49.216Z,77.40
2022-11-04T15:11:26.525Z,76.20
2022-11-04T15:13:59.907Z,76.00
2022-11-04T15:16:33.099Z,75.90
2022-11-04T15:19:04.167Z,75.60
2022-11-04T15:21:36.398Z,75.10
2022-11-04T15:24:07.777Z,74.70
2022-11-04T15:26:38.579Z,74.80
2022-11-04T15:29:14.224Z,74.30
2022-11-04T15:32:04.925Z,73.70
2022-11-04T15:34:36.522Z,73.30
2022-11-04T15:37:08.948Z,73.60
2022-11-04T15:39:45.116Z,74.20
2022-11-04T15:42:35.613Z,74.50
2022-11-04T15:45:26.674Z,74.80
2022-11-04T15:48:33.253Z,75.60
2022-11-04T15:51:21.344Z,76.20
2022-11-04T15:54:09.473Z,76.90
2022-11-04T15:56:49.167Z,77.20
2022-11-04T15:59:22.508Z,77.40
2022-11-04T16:01:55.568Z,77.60
2022-11-04T16:04:28.531Z,78.10
2022-11-04T16:07:10.745Z,78.30
2022-11-04T16:09:53.127Z,78.50
2022-11-04T16:12:32.966Z,78.80
2022-11-04T16:15:03.936Z,78.90
2022-11-04T16:17:39.270Z,78.90
2022-11-04T16:20:16.660Z,78.60
2022-11-04T16:22:49.225Z,78.50
2022-11-04T16:25:25.387Z,78.40
2022-11-04T16:28:05.789Z,78.40
2022-11-04T16:30:40.845Z,78.20
2022-11-04T16:33:17.070Z,78.10
2022-11-04T16:35:48.009Z,78.30
2022-11-04T16:38:18.809Z,78.40
2022-11-04T16:40:58.169Z,78.40
2022-11-04T16:43:29.336Z,78.60
2022-11-04T16:46:00.166Z,78.80
2022-11-04T16:48:31.721Z,78.40
2022-11-04T16:51:03.837Z,78.60
2022-11-04T16:53:34.708Z,78.50
2022-11-04T16:56:05.648Z,78.30
2022-11-04T16:58:36.895Z,78.10
2022-11-04T17:01:07.972Z,77.80
2022-11-04T17:03:44.183Z,78.00
2022-11-04T17:06:17.900Z,78.40
2022-11-04T17:08:49.062Z,78.90
2022-11-04T17:11:19.951Z,79.00
2022-11-04T17:13:50.848Z,79.40
2022-11-04T17:16:22.078Z,79.00
2022-11-04T17:18:53.128Z,79.50
2022-11-04T17:21:24.939Z,79.50
2022-11-04T17:23:57.150Z,80.00
2022-11-04T17:26:27.999Z,79.70
2022-11-04T17:28:58.996Z,79.90
2022-11-04T17:31:29.833Z,79.80
2022-11-04T17:34:00.715Z,80.40
2022-11-04T17:36:31.697Z,80.30
2022-11-04T17:39:02.829Z,80.20
2022-11-04T17:41:51.093Z,80.10
2022-11-04T17:44:27.711Z,80.50
2022-11-04T17:47:00.845Z,80.80
2022-11-04T17:49:31.845Z,80.90
2022-11-04T17:52:02.878Z,81.60
2022-11-04T17:54:33.966Z,81.30
2022-11-04T17:57:05.168Z,81.00
2022-11-04T17:59:37.035Z,81.70
2022-11-04T18:02:08.423Z,84.50
2022-11-04T18:04:39.610Z,82.10
2022-11-04T18:07:11.461Z,81.70
2022-11-04T18:09:42.578Z,82.20
2022-11-04T18:12:30.990Z,82.00
2022-11-04T18:15:01.826Z,81.80
2022-11-04T18:17:32.745Z,82.10
2022-11-04T18:20:13.669Z,84.90
2022-11-04T18:22:42.351Z,82.10
2022-11-04T18:25:13.786Z,82.20
2022-11-04T18:27:44.803Z,82.70
2022-11-04T18:30:17.210Z,82.80
2022-11-04T18:32:48.820Z,86.20
2022-11-04T18:35:19.856Z,86.80
2022-11-04T18:37:50.870Z,87.10
2022-11-04T18:40:21.735Z,86.40
2022-11-04T18:42:52.783Z,86.50
2022-11-04T18:45:23.670Z,86.50
2022-11-04T18:47:54.515Z,86.90
2022-11-04T18:50:25.421Z,86.70
2022-11-04T18:52:59.950Z,87.00
2022-11-04T18:55:32.048Z,86.90
2022-11-04T18:58:02.843Z,86.70
2022-11-04T19:00:34.639Z,86.60
2022-11-04T19:03:08.283Z,86.20
2022-11-04T19:05:43.764Z,88.50
2022-11-04T19:08:14.774Z,88.90
2022-11-04T19:11:00.220Z,84.30
2022-11-04T19:14:01.910Z,84.10
2022-11-04T19:15:55.061Z,84.30
2022-11-04T19:18:25.963Z,84.10
2022-11-04T19:20:56.803Z,84.30
2022-11-04T19:23:28.585Z,84.80
2022-11-04T19:26:02.182Z,84.80
2022-11-04T19:28:44.544Z,85.00
2022-11-04T19:31:05.164Z,84.60
2022-11-04T19:33:36.452Z,84.30
2022-11-04T19:36:07.761Z,85.00
2022-11-04T19:38:38.811Z,85.00
2022-11-04T19:41:16.626Z,85.30
2022-11-04T19:43:47.469Z,85.10
2022-11-04T19:46:18.524Z,85.50
2022-11-04T19:48:52.017Z,84.80
2022-11-04T19:51:24.657Z,85.20
2022-11-04T19:53:55.326Z,85.50
2022-11-04T19:56:26.989Z,85.70
2022-11-04T19:59:00.511Z,85.80
2022-11-04T20:01:30.804Z,85.40
2022-11-04T20:04:01.801Z,85.50
2022-11-04T20:06:33.325Z,85.70
2022-11-04T20:09:06.377Z,85.50
2022-11-04T20:11:40.052Z,85.30
2022-11-04T20:14:10.863Z,85.60
2022-11-04T20:16:42.290Z,85.40
2022-11-04T20:19:15.241Z,85.60
2022-11-04T20:21:45.303Z,85.80
2022-11-04T20:24:16.327Z,85.70
2022-11-04T20:26:48.727Z,85.90
2022-11-04T20:29:19.862Z,86.00
2022-11-04T20:31:50.893Z,85.80
2022-11-04T20:34:21.830Z,85.60
2022-11-04T20:36:57.723Z,85.80
2022-11-04T20:39:28.784Z,86.00
2022-11-04T20:41:59.632Z,85.70
2022-11-04T20:44:30.454Z,86.00
2022-11-04T20:47:02.315Z,86.00
2022-11-04T20:49:38.856Z,85.90
2022-11-04T20:52:09.213Z,85.80
2022-11-04T20:54:40.034Z,85.80
2022-11-04T20:57:11.014Z,85.40
2022-11-04T20:59:41.891Z,85.70
2022-11-04T21:02:13.938Z,85.90
2022-11-04T21:04:45.074Z,85.90
2022-11-04T21:07:15.929Z,86.00
2022-11-04T21:09:47.720Z,85.70
2022-11-04T21:12:19.263Z,87.10
2022-11-04T21:14:50.490Z,86.20
2022-11-04T21:17:21.338Z,86.20
2022-11-04T21:19:52.663Z,86.20
2022-11-04T21:22:24.745Z,86.00
2022-11-04T21:24:55.541Z,86.30
2022-11-04T21:27:26.497Z,86.30
2022-11-04T21:29:57.595Z,86.20
2022-11-04T21:32:35.891Z,86.30
2022-11-04T21:35:08.566Z,86.20
2022-11-04T21:37:39.647Z,86.30
2022-11-04T21:40:11.445Z,86.70
2022-11-04T21:42:45.861Z,86.70
2022-11-04T21:45:16.817Z,87.30
2022-11-04T21:47:47.733Z,87.60
2022-11-04T21:50:19.222Z,88.70
2022-11-04T21:52:50.170Z,88.20
2022-11-04T21:55:21.255Z,88.10
2022-11-04T21:57:53.362Z,88.30
2022-11-04T22:00:24.429Z,88.90
2022-11-04T22:02:55.495Z,89.00
2022-11-04T22:05:26.511Z,89.30
2022-11-04T22:08:14.488Z,89.60
2022-11-04T22:10:45.298Z,90.00
2022-11-04T22:13:16.088Z,90.00
2022-11-04T22:16:02.152Z,90.00
2022-11-04T22:18:35.758Z,90.20
2022-11-04T22:21:08.716Z,90.10
2022-11-04T22:23:39.945Z,90.60
2022-11-04T22:26:15.964Z,90.40
2022-11-04T22:28:47.240Z,90.40
2022-11-04T22:31:20.606Z,90.40
2022-11-04T22:33:52.207Z,90.60
2022-11-04T22:36:24.536Z,90.70
2022-11-04T22:38:55.514Z,90.80
2022-11-04T22:41:32.079Z,91.00
2022-11-04T22:44:04.316Z,91.10
2022-11-04T22:46:36.400Z,91.20
2022-11-04T22:49:07.217Z,91.60
2022-11-04T22:51:38.027Z,91.20
2022-11-04T22:54:08.935Z,91.40
2022-11-04T22:56:40.274Z,91.50
2022-11-04T22:59:12.343Z,91.40
2022-11-04T23:01:43.280Z,91.40
2022-11-04T23:04:15.373Z,91.30
2022-11-04T23:06:46.331Z,91.40
2022-11-04T23:09:17.153Z,91.40
2022-11-04T23:12:05.680Z,91.40
2022-11-04T23:14:46.878Z,91.40
2022-11-04T23:17:37.366Z,91.40
2022-11-04T23:20:11.050Z,91.40
2022-11-04T23:22:59.580Z,91.40
2022-11-04T23:25:30.504Z,91.30
2022-11-04T23:28:19.063Z,91.40
2022-11-04T23:30:52.407Z,91.40
2022-11-04T23:33:24.701Z,91.40
2022-11-04T23:36:13.325Z,91.30
2022-11-04T23:38:50.056Z,91.30
2022-11-04T23:41:34.838Z,91.40
2022-11-04T23:44:06.732Z,91.40
2022-11-04T23:46:56.461Z,91.40
2022-11-04T23:49:47.341Z,91.20
2022-11-04T23:52:37.474Z,91.60
2022-11-04T23:55:11.517Z,91.10
2022-11-04T23:58:00.776Z,91.00
